Airfield :
LOGIN :

Register | Disclaimer

   EN    FR    IT 

 










Legend :    VFR   Marginal VFR   IFR   Intensive IFR   Very Intensive IFR
Visi :
Ceiling :
>= 8 km
>= 3000ft
5 to 8 km
1000 to 3000 ft
1500m to 5 km
500 to 1000 ft
800 to 1500m
200 to 500 ft
< 800m
< 200 ft
Symbols :   Thunderstorms  Fog  Heavy snow  Heavy precipitations  Wind > 20 kt
SIGMETs :     Misc.  Thunderstorms  Icing  Turbulence  Mountain Waves  Volcanic Ashes







- Airport Elevation : 17 ft
- IATA code : GRS


LIRS - Grosseto

CURRENT METAR :
  • 192155Z 35003KT 9999 FEW025 15/12 Q1012

EXPIRED METARs :
  • 192055Z 34004KT 9999 SCT020 FEW025CB 16/13 Q1012
  • 191955Z 21003KT 9999 SCT020 FEW025CB 16/13 Q1012 RMK OVC BKN080 VIS MIN 9999 WIND THR03 24003KT WIND THR21 23004KT BLU

TAF TAF LIRS
Valid from the 19 at 21:00 until the 20 at 06:00 UTC


192000Z 1921/2006 36012KT 9999 SCT020 SCT060
TEMPO 1921/1924 5000 TSRA BKN020 FEW020CB
No reported NOTAMs for that airfield.
2 SIGMETs reported for the Roma FIR (LIRR) :
 
Severe turbulence
LIRR SIGMET 7 VALID 192000/200000 LIIB
LIRR ROMA FIR SEV TURB FCST N OF LINE N3747 E01048 - N4031 E01528 ABV FL160 NC=
Embedded thunderstorms
LIRR SIGMET 6 VALID 192000/200000 LIIB
LIRR ROMA FIR EMBD TS FCST WI N4310 E00944 - N4335 E01016 - N4343 E01109 - N4240 E01316 - N4127 E01421 - N4109 E01508 - N4009 E01542 - N3951 E01200 - N4132 E00944 - N4310 E00944 TOP ABV FL260 MOV SSE NC=



MET'MAP, your aeronautical weather chart ! - Copyright ORBIFLY December 2007 - Disclaimer

ORBIFLY MET'MAP TEAM :

Programming & Development : Alexandra Zaïnal
Concept & Development : Baudouin d'Aumeries
Co-Development & Prog : Marc-Olivier Méhu
Technical & hardware support : Manuel Goepfert

Contact : metmap@orbifly.com




SOURCES & CREDITS :

   NOAA